createdAt,value
2023-05-21T11:50:14.249Z,10.13
2023-05-21T11:52:43.821Z,11.45
2023-05-21T11:55:32.462Z,8.65
2023-05-21T11:58:02.594Z,11.88
2023-05-21T12:00:32.331Z,12.20
2023-05-21T12:03:20.978Z,11.13
2023-05-21T12:05:52.901Z,8.52
2023-05-21T12:08:25.984Z,12.65
2023-05-21T12:11:00.471Z,5.65
2023-05-21T12:13:30.229Z,5.97
2023-05-21T12:15:59.565Z,5.20
2023-05-21T12:18:47.383Z,7.85
2023-05-21T12:21:18.758Z,7.38
2023-05-21T12:24:05.481Z,4.65
2023-05-21T12:26:35.945Z,7.88
2023-05-21T12:29:23.921Z,6.63
2023-05-21T12:31:53.189Z,7.82
2023-05-21T12:34:40.753Z,7.53
2023-05-21T12:59:58.632Z,5.90
2023-05-21T13:02:41.161Z,6.53
2023-05-21T13:02:48.011Z,7.55
2023-05-21T13:05:36.418Z,11.57
2023-05-21T13:08:05.728Z,11.60
2023-05-21T13:10:35.288Z,5.32
2023-05-21T13:13:04.678Z,8.85
2023-05-21T13:15:35.730Z,5.93
2023-05-21T13:18:07.293Z,7.60
2023-05-21T13:20:36.772Z,5.38
2023-05-21T13:23:08.315Z,7.65
2023-05-21T13:25:39.065Z,5.38
2023-05-21T13:28:10.786Z,9.55
2023-05-21T13:30:59.645Z,8.73
2023-05-21T13:33:29.127Z,15.25
2023-05-21T13:35:58.485Z,14.32
2023-05-21T13:38:46.162Z,6.72
2023-05-21T13:41:15.648Z,7.53
2023-05-21T13:44:02.296Z,6.75
2023-05-21T13:46:51.654Z,7.60
2023-05-21T13:49:21.523Z,9.35
2023-05-21T13:52:09.699Z,10.85
2023-05-21T13:54:38.972Z,7.80
2023-05-21T13:57:43.070Z,7.38
2023-05-21T14:00:16.313Z,10.68
2023-05-21T14:02:48.648Z,11.60
2023-05-21T14:05:18.213Z,7.40
2023-05-21T14:08:05.971Z,10.95
2023-05-21T14:10:35.875Z,10.70
2023-05-21T14:13:18.335Z,11.43
2023-05-21T14:16:08.027Z,7.93
2023-05-21T14:18:38.834Z,8.68
2023-05-21T14:21:08.358Z,15.90
2023-05-21T14:23:37.751Z,13.90
2023-05-21T14:26:10.008Z,17.13
2023-05-21T14:28:39.177Z,20.33
2023-05-21T14:31:26.976Z,24.50
2023-05-21T14:33:57.770Z,20.35
2023-05-21T14:36:27.000Z,18.75
2023-05-21T14:39:13.424Z,21.27
2023-05-21T14:41:43.779Z,23.65
2023-05-21T14:44:13.007Z,29.98
2023-05-21T14:46:42.308Z,34.53
2023-05-21T14:49:31.067Z,15.73
2023-05-21T14:52:35.139Z,31.75
2023-05-21T14:55:04.398Z,40.13
2023-05-21T14:57:33.582Z,34.85
2023-05-21T15:00:20.752Z,91.18
2023-05-21T15:02:50.015Z,75.32
2023-05-21T15:05:20.878Z,38.92
2023-05-21T15:08:10.006Z,53.47
2023-05-21T15:10:39.224Z,46.13
2023-05-21T15:13:11.152Z,65.55
2023-05-21T15:15:58.639Z,112.07
2023-05-21T15:18:27.717Z,119.63
2023-05-21T15:21:19.173Z,133.57
2023-05-21T15:23:48.450Z,173.40
2023-05-21T15:26:17.691Z,153.80
2023-05-21T15:28:46.994Z,176.98
2023-05-21T15:31:16.641Z,163.88
2023-05-21T15:34:41.078Z,180.18
2023-05-21T15:37:11.872Z,172.52
2023-05-21T15:39:41.159Z,168.35
2023-05-21T15:42:10.321Z,154.13
2023-05-21T15:44:39.777Z,133.15
2023-05-21T15:47:09.350Z,156.75
2023-05-21T15:49:38.592Z,144.27
2023-05-21T15:52:08.700Z,142.32
2023-05-21T15:54:57.878Z,159.40
2023-05-21T15:57:27.101Z,142.23
2023-05-21T15:59:57.363Z,126.82
2023-05-21T16:02:26.765Z,123.55
2023-05-21T16:04:56.013Z,137.82
2023-05-21T16:07:43.119Z,121.53
2023-05-21T16:10:14.070Z,124.22
2023-05-21T16:12:43.578Z,120.68
2023-05-21T16:15:13.134Z,117.72
2023-05-21T16:17:42.319Z,131.25
2023-05-21T16:20:12.072Z,117.03
2023-05-21T16:22:42.202Z,127.47
2023-05-21T16:25:13.291Z,117.10
2023-05-21T16:27:42.536Z,112.13
2023-05-21T16:30:14.183Z,110.53
2023-05-21T16:32:43.509Z,116.15
2023-05-21T16:35:12.823Z,117.70
2023-05-21T16:37:41.980Z,116.10
2023-05-21T16:40:29.953Z,110.35
2023-05-21T16:43:02.151Z,114.07
2023-05-21T16:45:40.770Z,105.93
2023-05-21T16:48:27.843Z,102.50
2023-05-21T16:50:58.804Z,91.55
2023-05-21T16:53:28.060Z,93.50
2023-05-21T16:55:57.305Z,104.53
2023-05-21T16:58:28.716Z,96.40
2023-05-21T17:00:58.485Z,82.70
2023-05-21T17:03:28.231Z,82.80
2023-05-21T17:06:15.750Z,84.70
2023-05-21T17:09:03.799Z,82.60
2023-05-21T17:11:33.362Z,66.15
2023-05-21T17:14:04.215Z,71.43
2023-05-21T17:16:33.544Z,64.68
2023-05-21T17:19:02.985Z,71.47
2023-05-21T17:21:32.780Z,71.80
2023-05-21T17:24:02.256Z,68.22
2023-05-21T17:26:31.538Z,71.22
2023-05-21T17:29:00.826Z,63.63
2023-05-21T17:31:49.959Z,60.55
2023-05-21T17:34:20.043Z,67.22
2023-05-21T17:36:49.271Z,61.05
2023-05-21T17:39:18.577Z,65.60
2023-05-21T17:41:48.136Z,66.93
2023-05-21T17:44:18.050Z,70.32
2023-05-21T17:46:47.675Z,65.60
2023-05-21T17:49:18.801Z,61.20
2023-05-21T17:51:48.405Z,68.22
2023-05-21T17:54:36.167Z,77.90
2023-05-21T17:57:05.545Z,70.78
2023-05-21T17:59:34.817Z,72.60
2023-05-21T18:02:04.303Z,68.40
2023-05-21T18:04:35.319Z,90.85
2023-05-21T18:07:04.646Z,73.03
2023-05-21T18:09:33.842Z,76.35
2023-05-21T18:12:20.970Z,66.47
2023-05-21T18:15:25.628Z,73.72
2023-05-21T18:17:54.944Z,79.00
2023-05-21T18:20:25.761Z,76.15
2023-05-21T18:22:55.036Z,79.78
2023-05-21T18:25:41.678Z,80.43
2023-05-21T18:28:28.496Z,76.70
2023-05-21T18:31:16.955Z,68.47
2023-05-21T18:34:03.252Z,64.18
2023-05-21T18:36:39.097Z,65.43
2023-05-21T18:41:37.936Z,64.60
2023-05-21T18:44:07.726Z,58.78
2023-05-21T18:46:38.315Z,64.38
2023-05-21T18:49:07.745Z,60.40
2023-05-21T18:51:39.179Z,56.50
2023-05-21T18:54:27.169Z,49.70
2023-05-21T18:57:14.632Z,53.00
2023-05-21T19:00:00.990Z,53.28
2023-05-21T19:02:30.432Z,48.75
2023-05-21T19:05:00.000Z,50.53
2023-05-21T19:07:47.824Z,48.80
2023-05-21T19:10:34.147Z,47.25
2023-05-21T19:13:20.807Z,47.40
2023-05-21T19:15:50.108Z,40.35
2023-05-21T19:18:37.530Z,39.17
2023-05-21T19:21:06.826Z,43.00
2023-05-21T19:23:48.787Z,50.13
2023-05-21T19:26:23.124Z,58.30
2023-05-21T19:28:53.984Z,44.47
2023-05-21T19:31:24.247Z,47.60
2023-05-21T19:33:53.640Z,49.85
2023-05-21T19:36:23.363Z,52.35
2023-05-21T19:39:12.693Z,47.88
2023-05-21T19:41:42.458Z,43.03
2023-05-21T19:44:29.759Z,50.00
2023-05-21T19:46:59.054Z,39.65
2023-05-21T19:49:45.152Z,47.03
2023-05-21T19:52:32.821Z,41.55
2023-05-21T19:55:21.894Z,35.75
2023-05-21T19:57:51.258Z,41.55
2023-05-21T20:00:39.689Z,34.63
2023-05-21T20:03:09.814Z,34.88
2023-05-21T20:05:39.986Z,35.35
2023-05-21T20:08:09.297Z,35.55
2023-05-21T20:10:41.008Z,36.60
2023-05-21T20:13:27.760Z,30.48
2023-05-21T20:15:56.975Z,36.00
2023-05-21T20:18:26.894Z,32.92
2023-05-21T20:21:14.219Z,29.67
2023-05-21T20:23:43.428Z,30.90
2023-05-21T20:26:14.218Z,31.42
2023-05-21T20:28:43.601Z,30.17
2023-05-21T20:31:12.899Z,28.23
2023-05-21T20:33:42.631Z,28.40
2023-05-21T20:36:16.208Z,29.15
2023-05-21T20:38:46.032Z,31.40
2023-05-21T20:41:16.814Z,31.98
2023-05-21T20:43:46.485Z,32.80
2023-05-21T20:46:32.433Z,34.58
2023-05-21T20:49:36.910Z,33.72
2023-05-21T20:52:06.624Z,24.73
2023-05-21T20:54:35.892Z,29.73
2023-05-21T20:57:42.150Z,31.27
2023-05-21T21:00:12.623Z,27.30
2023-05-21T21:03:21.990Z,30.50
2023-05-21T21:05:51.422Z,33.65
2023-05-21T21:08:20.575Z,28.90
2023-05-21T21:10:49.798Z,28.60
2023-05-21T21:13:20.629Z,25.77
2023-05-21T21:16:09.041Z,28.80
2023-05-21T21:19:15.011Z,28.98
2023-05-21T21:21:44.280Z,35.15
2023-05-21T21:24:13.538Z,29.90
2023-05-21T21:26:42.695Z,26.48
2023-05-21T21:29:30.378Z,29.73
2023-05-21T21:31:59.778Z,35.75
2023-05-21T21:34:47.285Z,39.33
2023-05-21T21:37:34.585Z,29.55
2023-05-21T21:40:22.267Z,35.13
2023-05-21T21:42:51.567Z,26.95
2023-05-21T21:45:22.288Z,30.40
2023-05-21T21:47:51.536Z,32.03
2023-05-21T21:50:20.852Z,25.73
2023-05-21T21:52:50.025Z,34.88
2023-05-21T21:55:38.281Z,27.70
2023-05-21T21:58:07.632Z,33.70
2023-05-21T22:00:55.166Z,37.75
2023-05-21T22:03:24.451Z,33.45
2023-05-21T22:05:54.643Z,31.48
2023-05-21T22:08:23.821Z,33.72
2023-05-21T22:11:11.462Z,33.83
2023-05-21T22:13:58.700Z,34.53
2023-05-21T22:16:29.810Z,29.02
2023-05-21T22:18:59.732Z,30.02
2023-05-21T22:21:29.719Z,27.73
2023-05-21T22:23:58.882Z,33.42
2023-05-21T22:26:28.124Z,33.13
2023-05-21T22:28:59.472Z,32.92
2023-05-21T22:31:30.363Z,29.77
2023-05-21T22:34:18.596Z,31.88
2023-05-21T22:36:48.765Z,29.90
2023-05-21T22:39:34.864Z,33.22
2023-05-21T22:42:04.182Z,40.67
2023-05-21T22:44:33.399Z,29.85
2023-05-21T22:47:04.038Z,34.63
2023-05-21T22:49:34.248Z,28.80
2023-05-21T22:52:06.358Z,27.95
2023-05-21T22:54:35.541Z,32.92
2023-05-21T22:57:05.096Z,39.92
2023-05-21T22:59:34.644Z,34.20
2023-05-21T23:02:05.665Z,31.17
2023-05-21T23:04:53.090Z,28.50
2023-05-21T23:07:22.366Z,32.80
2023-05-21T23:09:52.190Z,46.80
2023-05-21T23:12:38.579Z,36.78
2023-05-21T23:15:10.364Z,35.88
2023-05-21T23:17:41.242Z,38.38
2023-05-21T23:20:11.638Z,43.35
2023-05-21T23:22:40.882Z,44.15
2023-05-21T23:25:11.305Z,43.53
2023-05-21T23:27:58.761Z,41.20
2023-05-21T23:30:27.939Z,44.08
2023-05-21T23:32:58.701Z,43.47
2023-05-21T23:35:27.954Z,49.03
2023-05-21T23:37:57.380Z,37.78
2023-05-21T23:40:26.655Z,45.72
2023-05-21T23:42:55.885Z,36.72
2023-05-21T23:45:43.682Z,37.88
2023-05-21T23:48:14.416Z,42.13
2023-05-21T23:50:43.631Z,35.13
2023-05-21T23:53:13.164Z,44.78
2023-05-21T23:56:00.885Z,43.65
2023-05-21T23:58:30.097Z,44.78
